sensor_id;sensor_type;location;lat;lon;timestamp;temperature;humidity
7196;DHT22;3639;51.308;5.624;2023-04-06T00:00:52;3.60;99.00
7196;DHT22;3639;51.308;5.624;2023-04-06T00:03:18;3.50;99.10
7196;DHT22;3639;51.308;5.624;2023-04-06T00:05:44;3.50;99.10
7196;DHT22;3639;51.308;5.624;2023-04-06T00:08:10;3.50;99.30
7196;DHT22;3639;51.308;5.624;2023-04-06T00:10:36;3.40;99.40
7196;DHT22;3639;51.308;5.624;2023-04-06T00:13:02;3.40;99.70
7196;DHT22;3639;51.308;5.624;2023-04-06T00:15:28;3.30;99.90
7196;DHT22;3639;51.308;5.624;2023-04-06T00:17:53;3.30;99.90
7196;DHT22;3639;51.308;5.624;2023-04-06T00:20:19;3.20;99.90
7196;DHT22;3639;51.308;5.624;2023-04-06T00:22:45;3.10;99.90
7196;DHT22;3639;51.308;5.624;2023-04-06T00:25:11;3.20;99.90
7196;DHT22;3639;51.308;5.624;2023-04-06T00:27:37;3.10;99.90
7196;DHT22;3639;51.308;5.624;2023-04-06T00:30:04;3.10;99.90
7196;DHT22;3639;51.308;5.624;2023-04-06T00:32:30;3.10;99.90
7196;DHT22;3639;51.308;5.624;2023-04-06T00:34:58;3.10;99.90
7196;DHT22;3639;51.308;5.624;2023-04-06T00:37:23;3.10;99.90
7196;DHT22;3639;51.308;5.624;2023-04-06T00:39:49;3.10;99.90
7196;DHT22;3639;51.308;5.624;2023-04-06T00:42:18;3.00;99.90
7196;DHT22;3639;51.308;5.624;2023-04-06T00:44:57;3.00;99.90
7196;DHT22;3639;51.308;5.624;2023-04-06T00:47:24;3.00;99.90
7196;DHT22;3639;51.308;5.624;2023-04-06T00:49:53;2.90;99.90
7196;DHT22;3639;51.308;5.624;2023-04-06T00:52:19;2.90;99.90
7196;DHT22;3639;51.308;5.624;2023-04-06T00:54:45;2.90;99.90
7196;DHT22;3639;51.308;5.624;2023-04-06T00:57:14;2.80;99.90
7196;DHT22;3639;51.308;5.624;2023-04-06T00:59:40;2.80;99.90
7196;DHT22;3639;51.308;5.624;2023-04-06T01:02:06;2.80;99.90
7196;DHT22;3639;51.308;5.624;2023-04-06T01:04:32;2.80;99.90
7196;DHT22;3639;51.308;5.624;2023-04-06T01:06:58;2.80;99.90
7196;DHT22;3639;51.308;5.624;2023-04-06T01:09:24;2.80;99.90
7196;DHT22;3639;51.308;5.624;2023-04-06T01:11:49;2.80;99.90
7196;DHT22;3639;51.308;5.624;2023-04-06T01:14:15;2.80;99.90
7196;DHT22;3639;51.308;5.624;2023-04-06T01:16:41;2.70;99.90
7196;DHT22;3639;51.308;5.624;2023-04-06T01:19:11;2.70;99.90
7196;DHT22;3639;51.308;5.624;2023-04-06T01:21:39;2.60;99.90
7196;DHT22;3639;51.308;5.624;2023-04-06T01:24:06;2.60;99.90
7196;DHT22;3639;51.308;5.624;2023-04-06T01:26:32;2.60;99.90
7196;DHT22;3639;51.308;5.624;2023-04-06T01:28:58;2.50;99.90
7196;DHT22;3639;51.308;5.624;2023-04-06T01:31:24;2.60;99.90
7196;DHT22;3639;51.308;5.624;2023-04-06T01:33:50;2.50;99.90
7196;DHT22;3639;51.308;5.624;2023-04-06T01:36:16;2.60;99.90
7196;DHT22;3639;51.308;5.624;2023-04-06T01:38:42;2.60;99.90
7196;DHT22;3639;51.308;5.624;2023-04-06T01:41:08;2.60;99.90
7196;DHT22;3639;51.308;5.624;2023-04-06T01:43:34;2.60;99.90
7196;DHT22;3639;51.308;5.624;2023-04-06T01:46:00;2.60;99.90
7196;DHT22;3639;51.308;5.624;2023-04-06T01:48:26;2.60;99.90
7196;DHT22;3639;51.308;5.624;2023-04-06T01:50:52;2.60;99.90
7196;DHT22;3639;51.308;5.624;2023-04-06T01:53:18;2.60;99.90
7196;DHT22;3639;51.308;5.624;2023-04-06T01:55:44;2.60;99.90
7196;DHT22;3639;51.308;5.624;2023-04-06T01:58:10;2.60;99.90
7196;DHT22;3639;51.308;5.624;2023-04-06T02:00:36;2.70;99.90
7196;DHT22;3639;51.308;5.624;2023-04-06T02:03:02;2.70;99.90
7196;DHT22;3639;51.308;5.624;2023-04-06T02:05:30;2.70;99.90
7196;DHT22;3639;51.308;5.624;2023-04-06T02:07:56;2.70;99.90
7196;DHT22;3639;51.308;5.624;2023-04-06T02:10:22;2.80;99.90
7196;DHT22;3639;51.308;5.624;2023-04-06T02:12:49;2.80;99.90
7196;DHT22;3639;51.308;5.624;2023-04-06T02:15:15;2.80;99.90
7196;DHT22;3639;51.308;5.624;2023-04-06T02:17:41;2.90;99.90
7196;DHT22;3639;51.308;5.624;2023-04-06T02:20:07;2.80;99.90
7196;DHT22;3639;51.308;5.624;2023-04-06T02:22:34;2.90;99.90
7196;DHT22;3639;51.308;5.624;2023-04-06T02:25:00;2.90;99.90
7196;DHT22;3639;51.308;5.624;2023-04-06T02:27:26;2.90;99.90
7196;DHT22;3639;51.308;5.624;2023-04-06T02:29:52;2.90;99.90
7196;DHT22;3639;51.308;5.624;2023-04-06T02:32:17;3.00;99.90
7196;DHT22;3639;51.308;5.624;2023-04-06T02:34:43;3.00;99.90
7196;DHT22;3639;51.308;5.624;2023-04-06T02:37:10;3.00;99.90
7196;DHT22;3639;51.308;5.624;2023-04-06T02:39:36;3.00;99.90
7196;DHT22;3639;51.308;5.624;2023-04-06T02:42:01;3.00;99.90
7196;DHT22;3639;51.308;5.624;2023-04-06T02:44:27;3.00;99.90
7196;DHT22;3639;51.308;5.624;2023-04-06T02:46:53;3.10;99.90
7196;DHT22;3639;51.308;5.624;2023-04-06T02:49:18;3.10;99.90
7196;DHT22;3639;51.308;5.624;2023-04-06T02:51:44;3.20;99.90
7196;DHT22;3639;51.308;5.624;2023-04-06T02:54:10;3.20;99.90
7196;DHT22;3639;51.308;5.624;2023-04-06T02:56:35;3.20;99.90
7196;DHT22;3639;51.308;5.624;2023-04-06T02:59:01;3.30;99.90
7196;DHT22;3639;51.308;5.624;2023-04-06T03:01:27;3.40;99.90
7196;DHT22;3639;51.308;5.624;2023-04-06T03:03:52;3.40;99.90
7196;DHT22;3639;51.308;5.624;2023-04-06T03:06:18;3.40;99.90
7196;DHT22;3639;51.308;5.624;2023-04-06T03:08:44;3.40;99.90
7196;DHT22;3639;51.308;5.624;2023-04-06T03:11:09;3.50;99.90
7196;DHT22;3639;51.308;5.624;2023-04-06T03:13:36;3.50;99.90
7196;DHT22;3639;51.308;5.624;2023-04-06T03:16:04;3.50;99.90
7196;DHT22;3639;51.308;5.624;2023-04-06T03:18:31;3.60;99.90
7196;DHT22;3639;51.308;5.624;2023-04-06T03:20:57;3.60;99.90
7196;DHT22;3639;51.308;5.624;2023-04-06T03:23:23;3.60;99.90
7196;DHT22;3639;51.308;5.624;2023-04-06T03:25:49;3.60;99.90
7196;DHT22;3639;51.308;5.624;2023-04-06T03:28:15;3.70;99.90
7196;DHT22;3639;51.308;5.624;2023-04-06T03:30:41;3.60;99.90
7196;DHT22;3639;51.308;5.624;2023-04-06T03:33:07;3.60;99.90
7196;DHT22;3639;51.308;5.624;2023-04-06T03:35:33;3.60;99.90
7196;DHT22;3639;51.308;5.624;2023-04-06T03:37:58;3.70;99.90
7196;DHT22;3639;51.308;5.624;2023-04-06T03:40:24;3.70;99.90
7196;DHT22;3639;51.308;5.624;2023-04-06T03:42:50;3.70;99.90
7196;DHT22;3639;51.308;5.624;2023-04-06T03:45:16;3.70;99.90
7196;DHT22;3639;51.308;5.624;2023-04-06T03:47:42;3.70;99.90
7196;DHT22;3639;51.308;5.624;2023-04-06T03:50:08;3.70;99.90
7196;DHT22;3639;51.308;5.624;2023-04-06T03:52:35;3.70;99.90
7196;DHT22;3639;51.308;5.624;2023-04-06T03:55:00;3.70;99.90
7196;DHT22;3639;51.308;5.624;2023-04-06T03:57:26;3.70;99.90
7196;DHT22;3639;51.308;5.624;2023-04-06T03:59:52;3.80;99.90
7196;DHT22;3639;51.308;5.624;2023-04-06T04:02:17;3.80;99.90
7196;DHT22;3639;51.308;5.624;2023-04-06T04:04:43;3.80;99.90
7196;DHT22;3639;51.308;5.624;2023-04-06T04:07:09;3.70;99.90
7196;DHT22;3639;51.308;5.624;2023-04-06T04:09:34;3.80;99.90
7196;DHT22;3639;51.308;5.624;2023-04-06T04:12:00;3.70;99.90
7196;DHT22;3639;51.308;5.624;2023-04-06T04:14:26;3.80;99.90
7196;DHT22;3639;51.308;5.624;2023-04-06T04:16:52;3.80;99.90
7196;DHT22;3639;51.308;5.624;2023-04-06T04:19:17;3.80;99.90
7196;DHT22;3639;51.308;5.624;2023-04-06T04:21:44;3.80;99.90
7196;DHT22;3639;51.308;5.624;2023-04-06T04:24:10;3.70;99.90
7196;DHT22;3639;51.308;5.624;2023-04-06T04:26:37;3.80;99.90
7196;DHT22;3639;51.308;5.624;2023-04-06T04:29:03;3.70;99.90
7196;DHT22;3639;51.308;5.624;2023-04-06T04:31:29;3.70;99.90
7196;DHT22;3639;51.308;5.624;2023-04-06T04:33:55;3.70;99.90
7196;DHT22;3639;51.308;5.624;2023-04-06T04:36:20;3.60;99.90
7196;DHT22;3639;51.308;5.624;2023-04-06T04:38:46;3.60;99.90
7196;DHT22;3639;51.308;5.624;2023-04-06T04:41:12;3.60;99.90
7196;DHT22;3639;51.308;5.624;2023-04-06T04:43:37;3.60;99.90
7196;DHT22;3639;51.308;5.624;2023-04-06T04:46:04;3.60;99.90
7196;DHT22;3639;51.308;5.624;2023-04-06T04:48:30;3.60;99.90
7196;DHT22;3639;51.308;5.624;2023-04-06T04:50:55;3.60;99.90
7196;DHT22;3639;51.308;5.624;2023-04-06T04:53:21;3.70;99.90
7196;DHT22;3639;51.308;5.624;2023-04-06T04:55:47;3.70;99.90
7196;DHT22;3639;51.308;5.624;2023-04-06T04:58:13;3.60;99.90
7196;DHT22;3639;51.308;5.624;2023-04-06T05:00:42;3.60;99.90
7196;DHT22;3639;51.308;5.624;2023-04-06T05:03:09;3.60;99.90
7196;DHT22;3639;51.308;5.624;2023-04-06T05:05:35;3.60;99.90
7196;DHT22;3639;51.308;5.624;2023-04-06T05:08:01;3.60;99.90
7196;DHT22;3639;51.308;5.624;2023-04-06T05:10:27;3.50;99.90
7196;DHT22;3639;51.308;5.624;2023-04-06T05:12:52;3.50;99.90
7196;DHT22;3639;51.308;5.624;2023-04-06T05:15:18;3.50;99.90
7196;DHT22;3639;51.308;5.624;2023-04-06T05:17:44;3.50;99.90
7196;DHT22;3639;51.308;5.624;2023-04-06T05:20:10;3.50;99.90
7196;DHT22;3639;51.308;5.624;2023-04-06T05:22:36;3.50;99.90
7196;DHT22;3639;51.308;5.624;2023-04-06T05:25:02;3.60;99.90
7196;DHT22;3639;51.308;5.624;2023-04-06T05:27:28;3.60;99.90
7196;DHT22;3639;51.308;5.624;2023-04-06T05:29:54;3.80;99.90
7196;DHT22;3639;51.308;5.624;2023-04-06T05:32:20;3.80;99.90
7196;DHT22;3639;51.308;5.624;2023-04-06T05:34:48;3.80;99.90
7196;DHT22;3639;51.308;5.624;2023-04-06T05:37:15;3.90;99.90
7196;DHT22;3639;51.308;5.624;2023-04-06T05:39:41;3.90;99.90
7196;DHT22;3639;51.308;5.624;2023-04-06T05:42:07;4.00;99.90
7196;DHT22;3639;51.308;5.624;2023-04-06T05:44:32;4.10;99.90
7196;DHT22;3639;51.308;5.624;2023-04-06T05:46:58;4.10;99.90
7196;DHT22;3639;51.308;5.624;2023-04-06T05:49:24;4.10;99.90
7196;DHT22;3639;51.308;5.624;2023-04-06T05:51:50;4.20;99.90
7196;DHT22;3639;51.308;5.624;2023-04-06T05:54:15;4.20;99.90
7196;DHT22;3639;51.308;5.624;2023-04-06T05:56:41;4.20;99.90
7196;DHT22;3639;51.308;5.624;2023-04-06T05:59:06;4.30;99.90
7196;DHT22;3639;51.308;5.624;2023-04-06T06:01:33;4.30;99.90
7196;DHT22;3639;51.308;5.624;2023-04-06T06:04:00;4.30;99.90
7196;DHT22;3639;51.308;5.624;2023-04-06T06:06:28;4.30;99.90
7196;DHT22;3639;51.308;5.624;2023-04-06T06:08:57;4.40;99.90
7196;DHT22;3639;51.308;5.624;2023-04-06T06:11:27;4.50;99.90
7196;DHT22;3639;51.308;5.624;2023-04-06T06:13:52;4.60;99.90
7196;DHT22;3639;51.308;5.624;2023-04-06T06:16:18;4.70;99.90
7196;DHT22;3639;51.308;5.624;2023-04-06T06:18:44;4.70;99.90
7196;DHT22;3639;51.308;5.624;2023-04-06T06:21:10;4.80;99.90
7196;DHT22;3639;51.308;5.624;2023-04-06T06:23:38;4.90;99.90
7196;DHT22;3639;51.308;5.624;2023-04-06T06:26:04;4.90;99.90
7196;DHT22;3639;51.308;5.624;2023-04-06T06:28:30;5.00;99.90
7196;DHT22;3639;51.308;5.624;2023-04-06T06:30:56;5.10;99.90
7196;DHT22;3639;51.308;5.624;2023-04-06T06:33:21;5.20;99.90
7196;DHT22;3639;51.308;5.624;2023-04-06T06:35:47;5.30;99.90
7196;DHT22;3639;51.308;5.624;2023-04-06T06:38:13;5.40;99.90
7196;DHT22;3639;51.308;5.624;2023-04-06T06:40:40;5.50;99.90
7196;DHT22;3639;51.308;5.624;2023-04-06T06:43:05;5.50;99.90
7196;DHT22;3639;51.308;5.624;2023-04-06T06:45:31;5.60;99.90
7196;DHT22;3639;51.308;5.624;2023-04-06T06:47:57;5.70;99.90
7196;DHT22;3639;51.308;5.624;2023-04-06T06:50:23;5.70;99.90
7196;DHT22;3639;51.308;5.624;2023-04-06T06:52:48;5.80;99.90
7196;DHT22;3639;51.308;5.624;2023-04-06T06:55:14;5.90;99.90
7196;DHT22;3639;51.308;5.624;2023-04-06T06:57:40;5.90;99.90
7196;DHT22;3639;51.308;5.624;2023-04-06T07:00:08;6.00;99.90
7196;DHT22;3639;51.308;5.624;2023-04-06T07:02:35;6.10;99.90
7196;DHT22;3639;51.308;5.624;2023-04-06T07:05:01;6.10;99.90
7196;DHT22;3639;51.308;5.624;2023-04-06T07:07:27;6.10;99.90
7196;DHT22;3639;51.308;5.624;2023-04-06T07:09:53;6.20;99.90
7196;DHT22;3639;51.308;5.624;2023-04-06T07:12:18;6.10;99.90
7196;DHT22;3639;51.308;5.624;2023-04-06T07:14:44;6.00;99.90
7196;DHT22;3639;51.308;5.624;2023-04-06T07:17:10;6.00;99.90
7196;DHT22;3639;51.308;5.624;2023-04-06T07:19:36;6.00;99.90
7196;DHT22;3639;51.308;5.624;2023-04-06T07:22:02;6.10;99.90
7196;DHT22;3639;51.308;5.624;2023-04-06T07:24:28;6.10;99.90
7196;DHT22;3639;51.308;5.624;2023-04-06T07:26:54;6.10;99.90
7196;DHT22;3639;51.308;5.624;2023-04-06T07:29:21;6.20;99.90
7196;DHT22;3639;51.308;5.624;2023-04-06T07:31:48;6.30;99.90
7196;DHT22;3639;51.308;5.624;2023-04-06T07:34:14;6.30;99.90
7196;DHT22;3639;51.308;5.624;2023-04-06T07:36:40;6.40;99.90
7196;DHT22;3639;51.308;5.624;2023-04-06T07:39:07;6.50;99.90
7196;DHT22;3639;51.308;5.624;2023-04-06T07:41:32;6.60;99.90
7196;DHT22;3639;51.308;5.624;2023-04-06T07:43:58;6.70;99.90
7196;DHT22;3639;51.308;5.624;2023-04-06T07:46:24;6.80;99.90
7196;DHT22;3639;51.308;5.624;2023-04-06T07:48:50;6.70;99.90
7196;DHT22;3639;51.308;5.624;2023-04-06T07:51:16;6.70;99.90
7196;DHT22;3639;51.308;5.624;2023-04-06T07:53:44;6.90;99.90
7196;DHT22;3639;51.308;5.624;2023-04-06T07:56:10;7.10;99.90
7196;DHT22;3639;51.308;5.624;2023-04-06T07:58:35;7.10;99.90
7196;DHT22;3639;51.308;5.624;2023-04-06T08:01:02;7.20;99.90
7196;DHT22;3639;51.308;5.624;2023-04-06T08:03:27;7.30;99.90
7196;DHT22;3639;51.308;5.624;2023-04-06T08:05:53;7.50;99.90
7196;DHT22;3639;51.308;5.624;2023-04-06T08:08:19;7.60;99.90
7196;DHT22;3639;51.308;5.624;2023-04-06T08:10:49;7.70;99.90
7196;DHT22;3639;51.308;5.624;2023-04-06T08:13:15;7.90;99.90
7196;DHT22;3639;51.308;5.624;2023-04-06T08:15:41;8.00;99.90
7196;DHT22;3639;51.308;5.624;2023-04-06T08:18:08;8.10;99.90
7196;DHT22;3639;51.308;5.624;2023-04-06T08:20:34;8.30;99.90
7196;DHT22;3639;51.308;5.624;2023-04-06T08:23:00;8.40;99.90
7196;DHT22;3639;51.308;5.624;2023-04-06T08:25:26;8.60;99.90
7196;DHT22;3639;51.308;5.624;2023-04-06T08:27:51;8.60;99.90
7196;DHT22;3639;51.308;5.624;2023-04-06T08:30:17;8.60;99.90
7196;DHT22;3639;51.308;5.624;2023-04-06T08:32:44;8.60;99.90
7196;DHT22;3639;51.308;5.624;2023-04-06T08:35:11;8.60;99.90
7196;DHT22;3639;51.308;5.624;2023-04-06T08:37:37;8.60;99.90
7196;DHT22;3639;51.308;5.624;2023-04-06T08:40:03;8.70;99.90
7196;DHT22;3639;51.308;5.624;2023-04-06T08:42:32;8.90;99.90
7196;DHT22;3639;51.308;5.624;2023-04-06T08:44:58;9.00;99.90
7196;DHT22;3639;51.308;5.624;2023-04-06T08:47:24;9.10;99.90
7196;DHT22;3639;51.308;5.624;2023-04-06T08:49:51;9.10;99.90
7196;DHT22;3639;51.308;5.624;2023-04-06T08:52:18;9.30;99.90
7196;DHT22;3639;51.308;5.624;2023-04-06T08:54:44;9.40;99.90
7196;DHT22;3639;51.308;5.624;2023-04-06T08:57:10;9.40;99.90
7196;DHT22;3639;51.308;5.624;2023-04-06T08:59:36;9.40;99.90
7196;DHT22;3639;51.308;5.624;2023-04-06T09:02:06;9.30;99.90
7196;DHT22;3639;51.308;5.624;2023-04-06T09:04:33;9.30;99.90
7196;DHT22;3639;51.308;5.624;2023-04-06T09:07:00;9.30;99.60
7196;DHT22;3639;51.308;5.624;2023-04-06T09:09:26;9.30;99.90
7196;DHT22;3639;51.308;5.624;2023-04-06T09:11:52;9.40;99.90
7196;DHT22;3639;51.308;5.624;2023-04-06T09:14:33;9.50;99.80
7196;DHT22;3639;51.308;5.624;2023-04-06T09:16:59;9.60;99.90
7196;DHT22;3639;51.308;5.624;2023-04-06T09:19:25;9.70;99.90
7196;DHT22;3639;51.308;5.624;2023-04-06T09:22:02;9.80;99.90
7196;DHT22;3639;51.308;5.624;2023-04-06T09:24:28;9.90;99.60
7196;DHT22;3639;51.308;5.624;2023-04-06T09:27:04;10.00;99.10
7196;DHT22;3639;51.308;5.624;2023-04-06T09:29:30;10.00;99.10
7196;DHT22;3639;51.308;5.624;2023-04-06T09:32:03;10.10;97.80
7196;DHT22;3639;51.308;5.624;2023-04-06T09:34:29;10.10;98.20
7196;DHT22;3639;51.308;5.624;2023-04-06T09:36:54;10.10;98.90
7196;DHT22;3639;51.308;5.624;2023-04-06T09:39:22;10.10;99.20
7196;DHT22;3639;51.308;5.624;2023-04-06T09:41:50;10.10;99.50
7196;DHT22;3639;51.308;5.624;2023-04-06T09:44:16;10.20;99.40
7196;DHT22;3639;51.308;5.624;2023-04-06T09:46:43;10.20;99.00
7196;DHT22;3639;51.308;5.624;2023-04-06T09:49:10;10.20;99.20
7196;DHT22;3639;51.308;5.624;2023-04-06T09:51:39;10.40;98.70
7196;DHT22;3639;51.308;5.624;2023-04-06T09:54:06;10.40;98.40
7196;DHT22;3639;51.308;5.624;2023-04-06T10:02:10;10.50;98.80
7196;DHT22;3639;51.308;5.624;2023-04-06T10:07:26;10.60;99.00
7196;DHT22;3639;51.308;5.624;2023-04-06T10:09:53;10.80;99.70
7196;DHT22;3639;51.308;5.624;2023-04-06T10:12:19;10.80;99.80
7196;DHT22;3639;51.308;5.624;2023-04-06T10:14:45;10.70;99.70
7196;DHT22;3639;51.308;5.624;2023-04-06T10:17:11;10.60;99.90
7196;DHT22;3639;51.308;5.624;2023-04-06T10:22:10;10.30;99.90
7196;DHT22;3639;51.308;5.624;2023-04-06T10:24:38;10.20;99.90
7196;DHT22;3639;51.308;5.624;2023-04-06T10:27:04;10.20;99.90
7196;DHT22;3639;51.308;5.624;2023-04-06T10:29:45;10.20;99.90
7196;DHT22;3639;51.308;5.624;2023-04-06T10:32:12;10.30;99.90
7196;DHT22;3639;51.308;5.624;2023-04-06T10:34:38;10.30;99.90
7196;DHT22;3639;51.308;5.624;2023-04-06T10:37:14;10.20;99.90
7196;DHT22;3639;51.308;5.624;2023-04-06T10:40:06;10.10;99.90
7196;DHT22;3639;51.308;5.624;2023-04-06T10:42:42;10.10;99.90
7196;DHT22;3639;51.308;5.624;2023-04-06T10:45:22;10.10;99.90
7196;DHT22;3639;51.308;5.624;2023-04-06T10:47:48;10.10;99.90
7196;DHT22;3639;51.308;5.624;2023-04-06T10:50:15;10.00;99.90
7196;DHT22;3639;51.308;5.624;2023-04-06T10:52:45;10.00;99.90
7196;DHT22;3639;51.308;5.624;2023-04-06T10:55:13;9.90;99.90
7196;DHT22;3639;51.308;5.624;2023-04-06T10:57:40;9.90;99.90
7196;DHT22;3639;51.308;5.624;2023-04-06T11:00:08;9.90;99.90
7196;DHT22;3639;51.308;5.624;2023-04-06T11:02:35;9.90;99.90
7196;DHT22;3639;51.308;5.624;2023-04-06T11:05:03;9.80;99.90
7196;DHT22;3639;51.308;5.624;2023-04-06T11:07:28;9.70;99.90
7196;DHT22;3639;51.308;5.624;2023-04-06T11:09:56;9.60;99.90
7196;DHT22;3639;51.308;5.624;2023-04-06T11:12:24;9.50;99.90
7196;DHT22;3639;51.308;5.624;2023-04-06T11:15:02;9.50;99.90
7196;DHT22;3639;51.308;5.624;2023-04-06T11:17:30;9.50;99.90
7196;DHT22;3639;51.308;5.624;2023-04-06T11:19:56;9.60;99.90
7196;DHT22;3639;51.308;5.624;2023-04-06T11:22:22;9.60;99.90
7196;DHT22;3639;51.308;5.624;2023-04-06T11:24:48;9.60;99.90
7196;DHT22;3639;51.308;5.624;2023-04-06T11:27:14;9.50;99.90
7196;DHT22;3639;51.308;5.624;2023-04-06T11:29:43;9.40;99.90
7196;DHT22;3639;51.308;5.624;2023-04-06T11:32:11;9.30;99.90
7196;DHT22;3639;51.308;5.624;2023-04-06T11:34:39;9.30;99.90
7196;DHT22;3639;51.308;5.624;2023-04-06T11:37:09;9.30;99.90
7196;DHT22;3639;51.308;5.624;2023-04-06T11:39:55;9.40;99.90
7196;DHT22;3639;51.308;5.624;2023-04-06T11:42:28;9.30;99.90
7196;DHT22;3639;51.308;5.624;2023-04-06T11:44:58;9.30;99.90
7196;DHT22;3639;51.308;5.624;2023-04-06T11:47:35;9.20;99.90
7196;DHT22;3639;51.308;5.624;2023-04-06T11:50:11;9.20;99.90
7196;DHT22;3639;51.308;5.624;2023-04-06T11:52:38;9.20;99.90
7196;DHT22;3639;51.308;5.624;2023-04-06T11:55:18;9.20;99.90
7196;DHT22;3639;51.308;5.624;2023-04-06T11:57:44;9.30;99.90
7196;DHT22;3639;51.308;5.624;2023-04-06T12:00:11;9.40;99.90
7196;DHT22;3639;51.308;5.624;2023-04-06T12:02:38;9.50;99.90
7196;DHT22;3639;51.308;5.624;2023-04-06T12:05:05;9.50;99.90
7196;DHT22;3639;51.308;5.624;2023-04-06T12:07:31;9.60;99.90
7196;DHT22;3639;51.308;5.624;2023-04-06T12:09:59;9.50;99.90
7196;DHT22;3639;51.308;5.624;2023-04-06T12:12:25;9.40;99.90
7196;DHT22;3639;51.308;5.624;2023-04-06T12:14:50;9.40;99.90
7196;DHT22;3639;51.308;5.624;2023-04-06T12:17:18;9.40;99.90
7196;DHT22;3639;51.308;5.624;2023-04-06T12:19:43;9.50;99.90
7196;DHT22;3639;51.308;5.624;2023-04-06T12:22:09;9.60;99.90
7196;DHT22;3639;51.308;5.624;2023-04-06T12:24:35;9.60;99.90
7196;DHT22;3639;51.308;5.624;2023-04-06T12:27:00;9.60;99.90
7196;DHT22;3639;51.308;5.624;2023-04-06T12:29:26;9.70;99.90
7196;DHT22;3639;51.308;5.624;2023-04-06T12:31:52;9.50;99.90
7196;DHT22;3639;51.308;5.624;2023-04-06T12:34:18;9.60;99.90
7196;DHT22;3639;51.308;5.624;2023-04-06T12:36:44;9.40;99.90
7196;DHT22;3639;51.308;5.624;2023-04-06T12:39:09;9.30;99.90
7196;DHT22;3639;51.308;5.624;2023-04-06T12:41:36;9.30;99.90
7196;DHT22;3639;51.308;5.624;2023-04-06T12:44:02;9.40;99.90
7196;DHT22;3639;51.308;5.624;2023-04-06T12:46:28;9.40;99.90
7196;DHT22;3639;51.308;5.624;2023-04-06T12:48:56;9.40;99.90
7196;DHT22;3639;51.308;5.624;2023-04-06T12:51:23;9.40;99.90
7196;DHT22;3639;51.308;5.624;2023-04-06T12:53:48;9.50;99.90
7196;DHT22;3639;51.308;5.624;2023-04-06T12:56:18;9.40;99.90
7196;DHT22;3639;51.308;5.624;2023-04-06T12:58:44;9.50;99.90
7196;DHT22;3639;51.308;5.624;2023-04-06T13:01:11;9.50;99.90
7196;DHT22;3639;51.308;5.624;2023-04-06T13:03:40;9.60;99.90
7196;DHT22;3639;51.308;5.624;2023-04-06T13:06:06;9.60;99.90
7196;DHT22;3639;51.308;5.624;2023-04-06T13:08:34;9.60;99.90
7196;DHT22;3639;51.308;5.624;2023-04-06T13:11:00;9.60;99.90
7196;DHT22;3639;51.308;5.624;2023-04-06T13:13:27;9.60;99.90
7196;DHT22;3639;51.308;5.624;2023-04-06T13:15:54;9.70;99.90
7196;DHT22;3639;51.308;5.624;2023-04-06T13:18:21;9.70;99.90
7196;DHT22;3639;51.308;5.624;2023-04-06T13:20:48;9.70;99.90
7196;DHT22;3639;51.308;5.624;2023-04-06T13:23:14;9.70;99.90
7196;DHT22;3639;51.308;5.624;2023-04-06T13:25:40;9.70;99.90
7196;DHT22;3639;51.308;5.624;2023-04-06T13:28:08;9.60;99.90
7196;DHT22;3639;51.308;5.624;2023-04-06T13:30:34;9.50;99.90
7196;DHT22;3639;51.308;5.624;2023-04-06T13:33:00;9.40;99.90
7196;DHT22;3639;51.308;5.624;2023-04-06T13:35:26;9.40;99.90
7196;DHT22;3639;51.308;5.624;2023-04-06T13:37:51;9.50;99.90
7196;DHT22;3639;51.308;5.624;2023-04-06T13:40:18;9.40;99.90
7196;DHT22;3639;51.308;5.624;2023-04-06T13:42:44;9.50;99.90
7196;DHT22;3639;51.308;5.624;2023-04-06T13:45:11;9.50;99.90
7196;DHT22;3639;51.308;5.624;2023-04-06T13:47:37;9.50;99.90
7196;DHT22;3639;51.308;5.624;2023-04-06T13:50:03;9.50;99.90
7196;DHT22;3639;51.308;5.624;2023-04-06T13:52:29;9.50;99.90
7196;DHT22;3639;51.308;5.624;2023-04-06T13:54:55;9.50;99.90
7196;DHT22;3639;51.308;5.624;2023-04-06T13:57:21;9.40;99.90
7196;DHT22;3639;51.308;5.624;2023-04-06T13:59:46;9.40;99.90
7196;DHT22;3639;51.308;5.624;2023-04-06T14:02:13;9.40;99.90
7196;DHT22;3639;51.308;5.624;2023-04-06T14:04:39;9.30;99.90
7196;DHT22;3639;51.308;5.624;2023-04-06T14:07:04;9.20;99.90
7196;DHT22;3639;51.308;5.624;2023-04-06T14:09:33;9.00;99.90
7196;DHT22;3639;51.308;5.624;2023-04-06T14:11:58;8.90;99.90
7196;DHT22;3639;51.308;5.624;2023-04-06T14:14:24;8.90;99.90
7196;DHT22;3639;51.308;5.624;2023-04-06T14:16:51;8.90;99.90
7196;DHT22;3639;51.308;5.624;2023-04-06T14:19:17;8.80;99.90
7196;DHT22;3639;51.308;5.624;2023-04-06T14:21:44;8.80;99.90
7196;DHT22;3639;51.308;5.624;2023-04-06T14:24:10;8.80;99.90
7196;DHT22;3639;51.308;5.624;2023-04-06T14:26:37;8.80;99.90
7196;DHT22;3639;51.308;5.624;2023-04-06T14:29:04;8.80;99.90
7196;DHT22;3639;51.308;5.624;2023-04-06T14:31:30;8.80;99.90
7196;DHT22;3639;51.308;5.624;2023-04-06T14:33:56;8.90;99.90
7196;DHT22;3639;51.308;5.624;2023-04-06T14:36:22;8.90;99.90
7196;DHT22;3639;51.308;5.624;2023-04-06T14:38:48;8.90;99.90
7196;DHT22;3639;51.308;5.624;2023-04-06T14:41:22;9.00;99.90
7196;DHT22;3639;51.308;5.624;2023-04-06T14:43:48;8.90;99.90
7196;DHT22;3639;51.308;5.624;2023-04-06T14:46:14;8.90;99.90
7196;DHT22;3639;51.308;5.624;2023-04-06T14:48:41;8.80;99.90
7196;DHT22;3639;51.308;5.624;2023-04-06T14:51:07;8.80;99.90
7196;DHT22;3639;51.308;5.624;2023-04-06T14:53:33;8.80;99.90
7196;DHT22;3639;51.308;5.624;2023-04-06T14:55:59;8.80;99.90
7196;DHT22;3639;51.308;5.624;2023-04-06T14:58:25;8.70;99.90
7196;DHT22;3639;51.308;5.624;2023-04-06T15:00:58;8.70;99.90
7196;DHT22;3639;51.308;5.624;2023-04-06T15:03:25;8.80;99.90
7196;DHT22;3639;51.308;5.624;2023-04-06T15:05:54;8.70;99.90
7196;DHT22;3639;51.308;5.624;2023-04-06T15:08:21;8.70;99.90
7196;DHT22;3639;51.308;5.624;2023-04-06T15:10:48;8.70;99.90
7196;DHT22;3639;51.308;5.624;2023-04-06T15:13:13;8.70;99.90
7196;DHT22;3639;51.308;5.624;2023-04-06T15:15:40;8.70;99.90
7196;DHT22;3639;51.308;5.624;2023-04-06T15:18:06;8.70;99.90
7196;DHT22;3639;51.308;5.624;2023-04-06T15:20:32;8.70;99.90
7196;DHT22;3639;51.308;5.624;2023-04-06T15:22:57;8.70;99.90
7196;DHT22;3639;51.308;5.624;2023-04-06T15:25:23;8.70;99.90
7196;DHT22;3639;51.308;5.624;2023-04-06T15:27:49;8.60;99.90
7196;DHT22;3639;51.308;5.624;2023-04-06T15:30:15;8.60;99.90
7196;DHT22;3639;51.308;5.624;2023-04-06T15:32:51;8.70;99.90
7196;DHT22;3639;51.308;5.624;2023-04-06T15:35:17;8.60;99.90
7196;DHT22;3639;51.308;5.624;2023-04-06T15:37:43;8.60;99.90
7196;DHT22;3639;51.308;5.624;2023-04-06T15:40:09;8.60;99.90
7196;DHT22;3639;51.308;5.624;2023-04-06T15:42:39;8.70;99.90
7196;DHT22;3639;51.308;5.624;2023-04-06T15:45:05;8.70;99.90
7196;DHT22;3639;51.308;5.624;2023-04-06T15:47:31;8.60;99.90
7196;DHT22;3639;51.308;5.624;2023-04-06T15:49:57;8.60;99.90
7196;DHT22;3639;51.308;5.624;2023-04-06T15:52:23;8.70;99.90
7196;DHT22;3639;51.308;5.624;2023-04-06T15:54:49;8.70;99.90
7196;DHT22;3639;51.308;5.624;2023-04-06T15:57:15;8.70;99.90
7196;DHT22;3639;51.308;5.624;2023-04-06T15:59:40;8.60;99.90
7196;DHT22;3639;51.308;5.624;2023-04-06T16:02:06;8.60;99.90
7196;DHT22;3639;51.308;5.624;2023-04-06T16:04:31;8.60;99.90
7196;DHT22;3639;51.308;5.624;2023-04-06T16:06:57;8.50;99.90
7196;DHT22;3639;51.308;5.624;2023-04-06T16:09:23;8.60;99.90
7196;DHT22;3639;51.308;5.624;2023-04-06T16:11:48;8.60;99.90
7196;DHT22;3639;51.308;5.624;2023-04-06T16:14:14;8.60;99.90
7196;DHT22;3639;51.308;5.624;2023-04-06T16:16:40;8.60;99.90
7196;DHT22;3639;51.308;5.624;2023-04-06T16:19:07;8.60;99.90
7196;DHT22;3639;51.308;5.624;2023-04-06T16:21:33;8.60;99.90
7196;DHT22;3639;51.308;5.624;2023-04-06T16:23:58;8.60;99.90